Time;durP1;ratioP1;P1;durP2;ratioP2;P2;SDS_P1;SDS_P2;PMS_P1;PMS_P2;Temp;Humidity;BMP_temperature;BMP_pressure;BME280_temperature;BME280_humidity;BME280_pressure;Samples;Min_cycle;Max_cycle;Signal;HPM_P1;HPM_P2
2024/04/06 00:02:01;;;;;;;0.00;0.00;;;;;;;12.96;100.00;99104.06;4877186;29;20037;-81
2024/04/06 00:04:46;;;;;;;;;;;;;;;;;;;;;
2024/04/06 00:07:11;;;;;;;0.00;0.00;;;;;;;12.85;100.00;99092.53;4865745;29;20025;-79
2024/04/06 00:09:49;;;;;;;;;;;;;;;;;;;;;
2024/04/06 00:13:20;;;;;;;;;;;;;;;;;;;;;
2024/04/06 00:15:54;;;;;;;0.10;0.10;;;;;;;13.18;100.00;99074.94;4850655;29;20039;-81
2024/04/06 00:18:27;;;;;;;0.00;0.00;;;;;;;13.26;100.00;99068.69;4863870;29;20045;-82
2024/04/06 00:20:53;;;;;;;0.00;0.00;;;;;;;13.35;100.00;99069.56;4875236;29;20159;-81
2024/04/06 00:23:28;;;;;;;;;;;;;;;;;;;;;
2024/04/06 00:25:54;;;;;;;0.00;0.00;;;;;;;13.19;100.00;99021.69;4875101;29;20033;-84
2024/04/06 00:28:25;;;;;;;0.00;0.00;;;;;;;13.19;100.00;99007.97;4869641;29;20065;-82
2024/04/06 00:30:51;;;;;;;0.00;0.00;;;;;;;13.27;100.00;99051.06;4888771;29;20412;-82
2024/04/06 00:33:20;;;;;;;0.00;0.00;;;;;;;13.14;100.00;99043.78;4863241;29;20064;-81
2024/04/06 00:35:49;;;;;;;0.00;0.00;;;;;;;13.19;100.00;99038.16;4873667;29;20128;-84
2024/04/06 00:38:14;;;;;;;0.10;0.10;;;;;;;13.17;100.00;99012.94;4882569;29;20032;-84
2024/04/06 00:40:40;;;;;;;0.00;0.00;;;;;;;13.27;100.00;99012.66;4884474;29;20047;-83
2024/04/06 00:43:13;;;;;;;0.00;0.00;;;;;;;13.46;100.00;98998.69;4859237;29;20036;-83
2024/04/06 00:45:39;;;;;;;0.00;0.00;;;;;;;13.47;100.00;99000.31;4870424;29;20056;-83
2024/04/06 00:48:05;;;;;;;0.00;0.00;;;;;;;13.56;100.00;98995.63;4877888;29;20033;-82
2024/04/06 00:50:41;;;;;;;0.00;0.00;;;;;;;13.59;100.00;99010.66;4889764;29;20139;-82
2024/04/06 00:53:17;;;;;;;;;;;;;;;;;;;;;
2024/04/06 00:55:49;;;;;;;0.00;0.00;;;;;;;13.54;100.00;98969.63;4869791;29;20485;-83
2024/04/06 00:58:24;;;;;;;;;;;;;;;;;;;;;
2024/04/06 01:01:18;;;;;;;;;;;;;;;;;;;;;
2024/04/06 01:03:54;;;;;;;;;;;;;;;;;;;;;
2024/04/06 01:06:19;;;;;;;0.00;0.00;;;;;;;13.86;100.00;98984.03;4885131;29;20468;-82
2024/04/06 01:08:45;;;;;;;0.00;0.00;;;;;;;13.89;100.00;98978.69;4874140;29;20135;-81
2024/04/06 01:11:11;;;;;;;0.00;0.00;;;;;;;13.95;100.00;98984.84;4850929;29;20029;-79
2024/04/06 01:13:42;;;;;;;0.00;0.00;;;;;;;13.88;100.00;98954.28;4875602;29;20395;-82
2024/04/06 01:16:08;;;;;;;0.00;0.00;;;;;;;13.91;100.00;98923.41;4876234;29;20030;-82
2024/04/06 01:18:33;;;;;;;0.00;0.00;;;;;;;13.78;100.00;98912.28;4882101;29;20117;-82
2024/04/06 01:21:10;;;;;;;;;;;;;;;;;;;;;
2024/04/06 01:23:36;;;;;;;0.00;0.00;;;;;;;13.70;100.00;98917.78;4888684;29;20060;-83
2024/04/06 01:26:02;;;;;;;0.00;0.00;;;;;;;13.94;100.00;98936.50;4866068;29;20163;-82
2024/04/06 01:29:20;;;;;;;0.00;0.00;;;;;;;13.97;100.00;98930.34;4878881;29;20584;-83
2024/04/06 01:31:48;;;;;;;0.00;0.00;;;;;;;13.61;100.00;98902.09;4881244;29;20037;-83
2024/04/06 01:34:14;;;;;;;0.00;0.00;;;;;;;13.74;100.00;98937.94;4891222;29;20036;-83
2024/04/06 01:36:47;;;;;;;0.00;0.00;;;;;;;13.63;100.00;98911.97;4872031;29;20120;-84
2024/04/06 01:39:45;;;;;;;;;;;;;;;;;;;;;
2024/04/06 01:42:12;;;;;;;0.00;0.00;;;;;;;13.87;100.00;98916.94;4897228;29;20391;-84
2024/04/06 01:44:40;;;;;;;0.00;0.00;;;;;;;13.75;100.00;98890.13;4882983;29;20040;-84
2024/04/06 01:47:06;;;;;;;0.00;0.00;;;;;;;13.91;100.00;98901.44;4875045;29;20025;-84
2024/04/06 01:49:35;;;;;;;0.00;0.00;;;;;;;13.93;100.00;98904.63;4849200;29;20746;-83
2024/04/06 01:52:04;;;;;;;0.00;0.00;;;;;;;13.85;100.00;98889.78;4872950;29;20387;-83
2024/04/06 01:54:29;;;;;;;0.00;0.00;;;;;;;13.87;100.00;98893.03;4864639;29;20036;-82
2024/04/06 01:56:55;;;;;;;0.00;0.00;;;;;;;13.85;100.00;98878.00;4867094;29;20052;-84
2024/04/06 01:59:23;;;;;;;0.00;0.00;;;;;;;13.66;100.00;98850.88;4878826;29;20401;-81
2024/04/06 02:01:48;;;;;;;0.00;0.00;;;;;;;13.56;100.00;98838.28;4884079;29;20029;-85
2024/04/06 02:04:46;;;;;;;;;;;;;;;;;;;;;
2024/04/06 02:07:12;;;;;;;0.03;0.03;;;;;;;13.26;100.00;98818.91;4900706;29;20033;-83
2024/04/06 02:09:41;;;;;;;0.00;0.00;;;;;;;13.37;100.00;98860.59;4853774;29;20029;-84
2024/04/06 02:12:08;;;;;;;0.00;0.00;;;;;;;13.16;100.00;98835.69;4868725;29;20065;-83
2024/04/06 02:14:43;;;;;;;0.00;0.00;;;;;;;13.15;100.00;98828.56;4885863;29;20048;-84
2024/04/06 02:17:22;;;;;;;0.00;0.00;;;;;;;13.34;100.00;98869.44;4877527;29;20026;-83
2024/04/06 02:20:05;;;;;;;;;;;;;;;;;;;;;
2024/04/06 02:25:23;;;;;;;0.00;0.00;;;;;;;13.09;100.00;98831.47;4884522;29;20076;-82
2024/04/06 02:27:52;;;;;;;0.00;0.00;;;;;;;13.10;100.00;98833.09;4883986;29;20020;-83
2024/04/06 02:30:18;;;;;;;0.00;0.00;;;;;;;13.20;100.00;98842.13;4884186;29;20040;-83
2024/04/06 02:32:43;;;;;;;0.00;0.00;;;;;;;13.19;100.00;98837.78;4883788;29;20403;-81
2024/04/06 02:35:11;;;;;;;0.03;0.03;;;;;;;13.35;100.00;98849.13;4850364;29;20041;-82
2024/04/06 02:37:37;;;;;;;0.00;0.00;;;;;;;13.27;99.65;98826.81;4882313;29;20020;-79
2024/04/06 02:40:05;;;;;;;0.00;0.00;;;;;;;13.27;99.36;98820.50;4867493;29;20080;-79
2024/04/06 02:42:31;;;;;;;0.00;0.00;;;;;;;13.15;100.00;98807.41;4841120;29;20028;-79
2024/04/06 02:44:56;;;;;;;0.00;0.00;;;;;;;13.17;99.51;98820.81;4853935;29;20051;-80
2024/04/06 02:47:24;;;;;;;0.00;0.00;;;;;;;13.06;99.63;98799.19;4875651;29;20092;-80
2024/04/06 02:49:50;;;;;;;0.00;0.00;;;;;;;12.99;99.66;98798.06;4862756;29;20369;-78
2024/04/06 02:52:15;;;;;;;0.00;0.00;;;;;;;12.89;100.00;98799.16;4845867;29;20066;-81
2024/04/06 02:54:40;;;;;;;0.00;0.00;;;;;;;12.76;100.00;98806.41;4890188;29;20471;-80
2024/04/06 02:57:11;;;;;;;0.00;0.00;;;;;;;12.70;100.00;98775.59;4848410;29;20052;-79
2024/04/06 02:59:39;;;;;;;0.00;0.00;;;;;;;12.49;99.81;98741.69;4871120;29;20101;-80
2024/04/06 03:02:05;;;;;;;0.00;0.00;;;;;;;12.75;99.71;98777.38;4892706;29;20032;-80
2024/04/06 03:04:31;;;;;;;0.00;0.00;;;;;;;12.60;99.26;98747.66;4873887;29;20099;-78
2024/04/06 03:07:00;;;;;;;0.00;0.00;;;;;;;12.75;98.91;98761.72;4866357;29;20036;-79
2024/04/06 03:09:25;;;;;;;0.00;0.00;;;;;;;12.69;98.01;98735.59;4889091;29;20509;-77
2024/04/06 03:11:56;;;;;;;0.00;0.00;;;;;;;12.89;95.83;98727.84;4878878;29;20041;-81
2024/04/06 03:14:24;;;;;;;0.00;0.00;;;;;;;13.37;92.85;98748.81;4875127;29;20036;-79
2024/04/06 03:16:49;;;;;;;0.00;0.00;;;;;;;13.51;91.70;98743.16;4892624;29;20035;-78
2024/04/06 03:19:15;;;;;;;0.00;0.00;;;;;;;13.70;89.12;98734.53;4874296;29;20044;-79
2024/04/06 03:21:40;;;;;;;0.00;0.00;;;;;;;13.87;88.41;98741.09;4853619;29;20035;-78
2024/04/06 03:24:08;;;;;;;0.00;0.00;;;;;;;13.95;87.22;98734.78;4850672;29;20073;-81
2024/04/06 03:27:00;;;;;;;0.00;0.00;;;;;;;14.16;86.48;98723.81;4861391;29;20037;-81
2024/04/06 03:29:25;;;;;;;0.00;0.00;;;;;;;14.12;85.73;98709.97;4872325;29;20056;-81
2024/04/06 03:31:51;;;;;;;0.00;0.00;;;;;;;14.23;86.27;98723.31;4868130;29;20121;-83
2024/04/06 03:34:42;;;;;;;;;;;;;;;;;;;;;
2024/04/06 03:37:26;;;;;;;0.00;0.00;;;;;;;14.07;85.41;98654.38;4887942;29;20019;-82
2024/04/06 03:39:51;;;;;;;0.00;0.00;;;;;;;14.24;85.21;98672.72;4878827;29;20033;-82
2024/04/06 03:42:17;;;;;;;0.00;0.00;;;;;;;14.28;84.69;98674.44;4873424;29;20093;-81
2024/04/06 03:44:42;;;;;;;0.00;0.00;;;;;;;14.35;84.87;98670.34;4838667;29;20035;-82
2024/04/06 03:47:35;;;;;;;;;;;;;;;;;;;;;
2024/04/06 03:50:07;;;;;;;0.00;0.00;;;;;;;14.50;84.08;98661.53;4862365;29;20025;-82
2024/04/06 03:52:34;;;;;;;0.00;0.00;;;;;;;14.58;84.69;98673.59;4850328;29;20040;-82
2024/04/06 03:55:02;;;;;;;0.00;0.00;;;;;;;14.74;84.87;98673.81;4885555;29;20055;-81
2024/04/06 03:57:28;;;;;;;0.00;0.00;;;;;;;14.62;84.06;98658.84;4874884;29;20029;-82
2024/04/06 03:59:55;;;;;;;0.00;0.00;;;;;;;14.68;84.30;98651.22;4851895;29;20090;-80
2024/04/06 04:02:21;;;;;;;0.00;0.00;;;;;;;14.61;84.69;98643.50;4862324;29;20089;-80
2024/04/06 04:04:47;;;;;;;0.00;0.00;;;;;;;14.67;84.72;98633.09;4873303;29;20484;-81
2024/04/06 04:07:12;;;;;;;0.00;0.00;;;;;;;14.65;84.78;98627.13;4854345;29;20537;-81
2024/04/06 04:09:38;;;;;;;0.00;0.00;;;;;;;14.66;85.21;98631.50;4856066;29;20029;-81
2024/04/06 04:12:06;;;;;;;0.00;0.00;;;;;;;14.69;84.88;98625.31;4869829;29;20048;-81
2024/04/06 04:14:32;;;;;;;0.00;0.00;;;;;;;14.77;85.03;98631.88;4881534;29;20029;-78
2024/04/06 04:17:02;;;;;;;0.00;0.00;;;;;;;14.85;84.70;98639.25;4869211;29;20017;-79
2024/04/06 04:19:38;;;;;;;0.00;0.00;;;;;;;14.89;84.78;98640.16;4846571;29;20109;-81
2024/04/06 04:22:13;;;;;;;0.00;0.00;;;;;;;14.92;83.88;98612.00;4858091;29;20060;-79
2024/04/06 04:24:39;;;;;;;0.00;0.00;;;;;;;14.94;83.71;98611.66;4879093;29;20139;-79
2024/04/06 04:27:10;;;;;;;0.00;0.00;;;;;;;15.20;83.68;98633.41;4885831;29;20119;-78
2024/04/06 04:29:37;;;;;;;0.00;0.00;;;;;;;15.00;82.95;98591.81;4862368;29;20033;-81
2024/04/06 04:32:10;;;;;;;0.00;0.00;;;;;;;15.23;83.25;98632.72;4873007;29;20025;-81
2024/04/06 04:34:43;;;;;;;0.00;0.00;;;;;;;15.16;83.83;98633.25;4877256;29;20087;-80
2024/04/06 04:37:08;;;;;;;0.00;0.00;;;;;;;15.07;84.06;98613.28;4874178;29;20021;-79
2024/04/06 04:39:43;;;;;;;0.00;0.00;;;;;;;14.97;84.32;98597.22;4877458;29;20119;-80
2024/04/06 04:42:11;;;;;;;0.00;0.00;;;;;;;14.90;85.16;98602.47;4880861;29;20029;-81
2024/04/06 04:44:37;;;;;;;0.00;0.00;;;;;;;14.88;85.50;98604.72;4876481;29;20580;-80
2024/04/06 04:47:04;;;;;;;0.00;0.00;;;;;;;14.66;86.04;98588.28;4891189;29;20037;-83
2024/04/06 04:49:30;;;;;;;0.00;0.00;;;;;;;14.69;86.45;98596.97;4865466;29;20037;-82
2024/04/06 04:51:58;;;;;;;0.00;0.00;;;;;;;14.74;87.06;98600.34;4875288;29;20036;-78
2024/04/06 04:54:24;;;;;;;0.00;0.00;;;;;;;14.54;88.08;98587.38;4871951;29;20029;-77
2024/04/06 04:56:49;;;;;;;0.00;0.00;;;;;;;14.53;88.16;98600.34;4882100;29;20116;-82
2024/04/06 04:59:21;;;;;;;0.00;0.00;;;;;;;14.32;88.71;98572.84;4883597;29;20028;-82
2024/04/06 05:01:47;;;;;;;0.00;0.00;;;;;;;14.16;89.27;98569.09;4870085;29;20043;-82
2024/04/06 05:04:15;;;;;;;0.00;0.00;;;;;;;14.25;89.99;98598.16;4857966;29;20134;-81
2024/04/06 05:06:48;;;;;;;0.00;0.00;;;;;;;14.31;90.25;98598.75;4880540;29;20075;-85
2024/04/06 05:09:17;;;;;;;0.00;0.00;;;;;;;14.01;90.99;98562.25;4883981;29;20032;-84
2024/04/06 05:11:43;;;;;;;0.00;0.00;;;;;;;14.14;91.83;98605.97;4881828;29;20064;-85
2024/04/06 05:14:28;;;;;;;0.00;0.00;;;;;;;14.09;92.50;98608.94;4878933;29;20040;-85
2024/04/06 05:16:55;;;;;;;0.00;0.00;;;;;;;13.98;93.07;98580.22;4887451;29;20016;-82
2024/04/06 05:19:31;;;;;;;;;;;;;;;;;;;;;
2024/04/06 05:21:59;;;;;;;0.00;0.00;;;;;;;14.09;93.79;98624.59;4895867;29;20379;-82
2024/04/06 05:24:31;;;;;;;0.00;0.00;;;;;;;13.95;94.46;98598.16;4875229;29;20087;-84
2024/04/06 05:26:59;;;;;;;0.00;0.00;;;;;;;13.93;94.28;98594.13;4888214;29;20033;-78
2024/04/06 05:29:25;;;;;;;0.00;0.00;;;;;;;13.91;94.77;98590.94;4872131;29;20045;-79
2024/04/06 05:31:54;;;;;;;0.00;0.00;;;;;;;13.91;94.99;98597.22;4858338;29;20034;-79
2024/04/06 05:34:19;;;;;;;0.00;0.00;;;;;;;13.98;95.65;98595.91;4858267;29;20102;-81
2024/04/06 05:36:48;;;;;;;0.00;0.00;;;;;;;13.94;95.67;98580.09;4860290;29;20709;-79
2024/04/06 05:39:33;;;;;;;0.00;0.00;;;;;;;14.02;96.09;98589.41;4873233;29;20129;-79
2024/04/06 05:41:59;;;;;;;0.00;0.00;;;;;;;13.94;96.02;98579.28;4873088;29;20121;-82
2024/04/06 05:44:34;;;;;;;0.00;0.00;;;;;;;13.99;95.91;98601.06;4856033;29;20033;-82
2024/04/06 05:47:04;;;;;;;0.00;0.00;;;;;;;13.96;96.47;98607.25;4875613;29;20029;-81
2024/04/06 05:49:30;;;;;;;0.00;0.00;;;;;;;13.94;96.21;98601.25;4861514;29;20037;-81
2024/04/06 05:51:58;;;;;;;0.00;0.00;;;;;;;13.93;96.24;98602.38;4870280;29;20082;-81
2024/04/06 05:54:24;;;;;;;0.00;0.00;;;;;;;14.03;96.50;98626.75;4861653;29;20029;-80
2024/04/06 05:56:49;;;;;;;0.00;0.00;;;;;;;13.92;96.64;98625.53;4853093;29;20043;-82
2024/04/06 05:59:17;;;;;;;0.00;0.00;;;;;;;13.81;96.22;98592.13;4862497;29;20036;-80
2024/04/06 06:01:42;;;;;;;0.00;0.00;;;;;;;13.94;96.35;98607.56;4873275;29;20137;-81
2024/04/06 06:04:10;;;;;;;0.00;0.00;;;;;;;13.79;96.84;98611.69;4843460;29;20484;-81
2024/04/06 06:06:35;;;;;;;0.00;0.00;;;;;;;13.82;97.07;98592.94;4863984;29;20045;-83
2024/04/06 06:09:04;;;;;;;0.00;0.00;;;;;;;13.80;96.56;98601.50;4874595;29;20057;-82
2024/04/06 06:11:35;;;;;;;0.00;0.00;;;;;;;13.89;97.01;98609.72;4878079;29;20127;-83
2024/04/06 06:14:04;;;;;;;0.00;0.00;;;;;;;13.91;97.06;98607.41;4864520;29;20053;-82
2024/04/06 06:16:29;;;;;;;0.00;0.00;;;;;;;14.09;96.21;98597.94;4881312;29;20052;-84
2024/04/06 06:18:55;;;;;;;0.00;0.00;;;;;;;14.18;95.70;98594.28;4878343;29;20034;-81
2024/04/06 06:21:20;;;;;;;0.00;0.00;;;;;;;14.18;95.14;98606.13;4844937;29;20065;-81
2024/04/06 06:23:46;;;;;;;0.00;0.00;;;;;;;14.23;94.37;98603.16;4883402;29;20045;-84
2024/04/06 06:26:11;;;;;;;0.00;0.00;;;;;;;14.28;94.43;98621.38;4846081;29;20041;-83
2024/04/06 06:28:39;;;;;;;0.00;0.00;;;;;;;14.13;94.50;98598.88;4872365;29;20089;-80
2024/04/06 06:31:07;;;;;;;0.00;0.00;;;;;;;14.22;94.47;98617.25;4872311;29;20040;-82
2024/04/06 06:33:33;;;;;;;0.00;0.00;;;;;;;14.27;94.81;98637.09;4873058;29;20066;-81
2024/04/06 06:35:58;;;;;;;0.00;0.00;;;;;;;14.36;93.88;98622.50;4859005;29;20393;-82
2024/04/06 06:38:27;;;;;;;0.00;0.00;;;;;;;14.39;93.45;98605.31;4847423;29;20033;-82
2024/04/06 06:40:53;;;;;;;0.00;0.00;;;;;;;14.58;93.32;98618.59;4885225;29;20136;-81
2024/04/06 06:43:20;;;;;;;0.00;0.00;;;;;;;14.44;92.42;98589.41;4872884;29;20128;-81
2024/04/06 06:45:46;;;;;;;0.00;0.00;;;;;;;14.65;92.08;98624.38;4876361;29;20052;-81
2024/04/06 06:48:13;;;;;;;0.00;0.00;;;;;;;14.68;91.94;98607.19;4862749;29;20037;-83
2024/04/06 06:50:49;;;;;;;0.00;0.00;;;;;;;14.59;91.49;98581.69;4856485;29;20041;-81
2024/04/06 06:53:27;;;;;;;0.00;0.00;;;;;;;14.78;90.75;98606.78;4855924;29;20041;-80
2024/04/06 06:56:03;;;;;;;;;;;;;;;;;;;;;
2024/04/06 06:58:39;;;;;;;0.00;0.00;;;;;;;14.91;89.86;98601.28;4863819;29;20029;-80
2024/04/06 07:01:09;;;;;;;0.00;0.00;;;;;;;15.24;88.56;98637.06;4886351;29;20384;-79
2024/04/06 07:03:44;;;;;;;;;;;;;;;;;;;;;
2024/04/06 07:09:32;;;;;;;0.00;0.00;;;;;;;15.50;86.26;98623.00;4874168;29;20074;-81
2024/04/06 07:11:57;;;;;;;0.00;0.00;;;;;;;15.62;85.85;98637.94;4875540;29;20433;-81
2024/04/06 07:14:23;;;;;;;0.00;0.00;;;;;;;15.62;86.12;98632.41;4871147;29;20041;-79
2024/04/06 07:16:58;;;;;;;0.00;0.00;;;;;;;15.54;84.53;98615.66;4872080;29;20029;-80
2024/04/06 07:19:51;;;;;;;0.00;0.00;;;;;;;15.76;84.79;98652.19;4868364;29;20020;-79
2024/04/06 07:22:44;;;;;;;;;;;;;;;;;;;;;
2024/04/06 07:25:20;;;;;;;;;;;;;;;;;;;;;
2024/04/06 07:27:48;;;;;;;0.00;0.00;;;;;;;15.94;83.44;98622.44;4881772;29;20047;-81
2024/04/06 07:30:19;;;;;;;0.00;0.00;;;;;;;16.13;82.75;98632.88;4878345;29;20107;-81
2024/04/06 07:32:46;;;;;;;0.00;0.00;;;;;;;16.14;82.76;98640.00;4851021;29;20560;-78
2024/04/06 07:35:14;;;;;;;0.00;0.00;;;;;;;16.00;82.34;98601.78;4886244;29;20484;-81
2024/04/06 07:37:43;;;;;;;0.00;0.00;;;;;;;15.98;81.89;98600.53;4887416;29;20149;-80
2024/04/06 07:40:09;;;;;;;0.00;0.00;;;;;;;16.18;82.68;98621.63;4877766;29;20031;-79
2024/04/06 07:42:34;;;;;;;0.00;0.00;;;;;;;16.28;80.95;98619.53;4878138;29;20028;-79
2024/04/06 07:45:00;;;;;;;0.00;0.00;;;;;;;16.22;80.42;98638.25;4873496;29;20111;-79
2024/04/06 07:47:28;;;;;;;0.00;0.00;;;;;;;16.22;81.91;98627.22;4863995;29;20033;-79
2024/04/06 07:50:01;;;;;;;0.00;0.00;;;;;;;16.43;80.81;98637.31;4887349;29;20072;-80
2024/04/06 07:52:28;;;;;;;0.00;0.00;;;;;;;16.46;81.51;98647.66;4897474;29;20099;-81
2024/04/06 07:54:53;;;;;;;0.00;0.00;;;;;;;16.54;81.53;98653.03;4877130;29;20036;-80
2024/04/06 07:57:19;;;;;;;0.00;0.00;;;;;;;16.46;80.88;98631.91;4882706;29;20654;-80
2024/04/06 07:59:44;;;;;;;0.00;0.00;;;;;;;16.50;80.36;98616.25;4880224;29;20098;-80
2024/04/06 08:02:34;;;;;;;0.00;0.00;;;;;;;16.56;79.97;98603.81;4852568;29;20055;-80
2024/04/06 08:05:12;;;;;;;0.00;0.00;;;;;;;17.05;78.57;98635.16;4860762;29;20032;-79
2024/04/06 08:11:15;;;;;;;0.00;0.00;;;;;;;17.19;77.10;98621.72;4882146;29;20072;-78
2024/04/06 08:13:43;;;;;;;0.00;0.00;;;;;;;17.11;77.12;98589.53;4866838;29;20139;-79
2024/04/06 08:16:08;;;;;;;0.00;0.00;;;;;;;17.22;77.60;98600.91;4877987;29;20017;-77
2024/04/06 08:18:34;;;;;;;0.00;0.00;;;;;;;17.58;76.37;98632.16;4897664;29;20159;-78
2024/04/06 08:21:32;;;;;;;0.00;0.00;;;;;;;17.56;76.61;98610.41;4862905;29;20089;-78
2024/04/06 08:24:00;;;;;;;0.00;0.00;;;;;;;17.40;76.04;98607.66;4882507;29;20048;-78
2024/04/06 08:26:25;;;;;;;0.00;0.00;;;;;;;17.35;75.76;98604.38;4894337;29;20029;-79
2024/04/06 08:29:01;;;;;;;;;;;;;;;;;;;;;
2024/04/06 08:31:35;;;;;;;0.00;0.00;;;;;;;17.55;76.19;98625.41;4885637;29;20029;-78
2024/04/06 08:34:01;;;;;;;0.00;0.00;;;;;;;17.26;76.24;98621.91;4882036;29;20032;-78
2024/04/06 08:36:26;;;;;;;0.00;0.00;;;;;;;16.99;76.38;98631.84;4875365;29;20084;-78
2024/04/06 08:39:04;;;;;;;0.00;0.00;;;;;;;16.96;77.37;98629.00;4894844;29;20559;-78
2024/04/06 08:42:09;;;;;;;;;;;;;;;;;;;;;
2024/04/06 08:45:32;;;;;;;;;;;;;;;;;;;;;
2024/04/06 08:48:36;;;;;;;;;;;;;;;;;;;;;
2024/04/06 09:02:00;;;;;;;0.00;0.00;;;;;;;16.43;79.81;98631.78;4717908;30;20051;-78
2024/04/06 09:04:25;;;;;;;0.00;0.00;;;;;;;16.14;79.93;98625.44;4732165;30;20061;-79
2024/04/06 09:13:23;;;;;;;0.00;0.00;;;;;;;15.69;82.55;98638.97;4860522;29;20041;-82
2024/04/06 09:23:57;;;;;;;;;;;;;;;;;;;;;
2024/04/06 09:34:45;;;;;;;;;;;;;;;;;;;;;
2024/04/06 09:40:56;;;;;;;;;;;;;;;;;;;;;
2024/04/06 09:43:58;;;;;;;;;;;;;;;;;;;;;
2024/04/06 09:50:32;;;;;;;;;;;;;;;;;;;;;
2024/04/06 09:53:16;;;;;;;0.00;0.00;;;;;;;15.76;80.26;98632.09;4778635;29;20069;-78
2024/04/06 09:55:51;;;;;;;0.00;0.00;;;;;;;16.00;79.89;98669.88;4781913;29;20046;-78
2024/04/06 10:19:14;;;;;;;0.00;0.00;;;;;;;16.66;74.25;98746.03;4744918;30;20483;-79
2024/04/06 10:22:10;;;;;;;0.00;0.00;;;;;;;16.73;72.71;98795.09;4728751;30;20083;-80
2024/04/06 10:25:21;;;;;;;;;;;;;;;;;;;;;
2024/04/06 10:28:20;;;;;;;;;;;;;;;;;;;;;
2024/04/06 10:31:21;;;;;;;;;;;;;;;;;;;;;
2024/04/06 10:45:16;;;;;;;;;;;;;;;;;;;;;
2024/04/06 10:55:19;;;;;;;;;;;;;;;;;;;;;
2024/04/06 10:58:23;;;;;;;;;;;;;;;;;;;;;
2024/04/06 11:01:28;;;;;;;;;;;;;;;;;;;;;
2024/04/06 11:05:32;;;;;;;;;;;;;;;;;;;;;
2024/04/06 11:32:11;;;;;;;;;;;;;;;;;;;;;
2024/04/06 11:53:35;;;;;;;;;;;;;;;;;;;;;
2024/04/06 12:00:08;;;;;;;;;;;;;;;;;;;;;
2024/04/06 12:03:23;;;;;;;0.00;0.00;;;;;;;24.12;41.24;98777.28;4814527;29;20042;-79
2024/04/06 13:22:27;;;;;;;0.00;0.00;;;;;;;18.38;56.68;98870.84;4890472;29;20051;-78
2024/04/06 13:24:54;;;;;;;0.00;0.00;;;;;;;19.82;53.34;98909.41;4890180;29;20028;-78
2024/04/06 13:27:30;;;;;;;;;;;;;;;;;;;;;
2024/04/06 13:29:59;;;;;;;0.00;0.00;;;;;;;19.16;54.59;98928.56;4885375;29;20028;-79
2024/04/06 13:32:24;;;;;;;0.00;0.00;;;;;;;19.02;54.20;98907.63;4909360;29;20027;-79
2024/04/06 13:35:11;;;;;;;;;;;;;;;;;;;;;
2024/04/06 13:37:42;;;;;;;0.00;0.00;;;;;;;19.40;52.00;98907.31;4890946;29;20483;-81
2024/04/06 13:40:08;;;;;;;0.00;0.00;;;;;;;18.47;55.62;98918.53;4910401;29;20039;-78
2024/04/06 13:43:00;;;;;;;0.00;0.00;;;;;;;17.85;58.31;98953.16;4881213;29;20395;-78
2024/04/06 13:46:09;;;;;;;0.00;0.00;;;;;;;17.83;59.13;98925.88;4894855;29;20024;-78
2024/04/06 13:48:37;;;;;;;0.00;0.00;;;;;;;17.80;59.72;98907.22;4847281;29;20130;-79
2024/04/06 13:51:03;;;;;;;0.00;0.00;;;;;;;17.80;58.88;98918.28;4868819;29;20025;-78
2024/04/06 13:53:29;;;;;;;0.00;0.00;;;;;;;17.41;60.46;98901.34;4875439;29;20040;-78
2024/04/06 13:55:57;;;;;;;0.00;0.00;;;;;;;17.42;61.90;98919.50;4874029;29;20029;-80
2024/04/06 13:58:23;;;;;;;0.00;0.00;;;;;;;17.49;62.38;98908.69;4877283;29;20048;-78
2024/04/06 14:01:01;;;;;;;0.00;0.00;;;;;;;18.02;59.26;98929.94;4908418;29;20031;-79
2024/04/06 14:03:41;;;;;;;0.00;0.00;;;;;;;18.62;56.62;98914.16;4865272;29;20090;-81
2024/04/06 14:06:07;;;;;;;0.00;0.00;;;;;;;18.64;56.07;98981.03;4907655;29;20127;-82
2024/04/06 14:08:42;;;;;;;0.08;0.08;;;;;;;17.67;58.03;98886.28;4896048;29;20119;-80
2024/04/06 14:11:07;;;;;;;0.00;0.00;;;;;;;17.12;59.90;98936.38;4883891;29;20024;-79
2024/04/06 14:13:35;;;;;;;0.00;0.00;;;;;;;16.52;63.16;98922.97;4894165;29;20052;-79
2024/04/06 14:16:23;;;;;;;;;;;;;;;;;;;;;
2024/04/06 14:18:51;;;;;;;0.00;0.00;;;;;;;15.94;65.13;98922.13;4887214;29;20029;-76
2024/04/06 14:21:16;;;;;;;0.00;0.00;;;;;;;15.93;67.57;98945.31;4889338;29;20096;-77
2024/04/06 14:23:53;;;;;;;0.00;0.00;;;;;;;15.60;68.25;98904.72;4889135;29;20465;-78
2024/04/06 14:26:38;;;;;;;;;;;;;;;;;;;;;
2024/04/06 14:29:13;;;;;;;0.00;0.00;;;;;;;15.73;68.63;98911.91;4889646;29;20016;-77
2024/04/06 14:31:47;;;;;;;0.00;0.00;;;;;;;15.56;68.26;98942.34;4893108;29;20115;-78
2024/04/06 14:34:28;;;;;;;;;;;;;;;;;;;;;
2024/04/06 14:37:07;;;;;;;;;;;;;;;;;;;;;
2024/04/06 14:39:35;;;;;;;0.00;0.00;;;;;;;15.53;70.66;98928.09;4889040;29;20406;-76
2024/04/06 14:45:24;;;;;;;0.00;0.00;;;;;;;15.30;72.47;98938.63;4875951;29;20037;-78
2024/04/06 14:47:55;;;;;;;0.00;0.00;;;;;;;15.43;73.05;98967.03;4890528;29;20036;-78
2024/04/06 14:51:01;;;;;;;;;;;;;;;;;;;;;
2024/04/06 14:54:02;;;;;;;;;;;;;;;;;;;;;
2024/04/06 14:56:38;;;;;;;;;;;;;;;;;;;;;
2024/04/06 14:59:14;;;;;;;0.03;0.03;;;;;;;14.82;76.19;98915.91;4878087;29;20039;-80
2024/04/06 15:02:03;;;;;;;0.00;0.00;;;;;;;14.77;76.63;98929.84;4872211;29;20028;-79
2024/04/06 15:05:07;;;;;;;0.00;0.00;;;;;;;14.88;76.58;98966.06;4888562;29;20484;-77
2024/04/06 15:07:33;;;;;;;0.00;0.00;;;;;;;14.76;77.27;98955.75;4890959;29;20067;-77
2024/04/06 15:10:03;;;;;;;0.00;0.00;;;;;;;14.58;78.34;98943.16;4889280;29;20052;-77
2024/04/06 15:12:32;;;;;;;0.00;0.00;;;;;;;14.63;79.26;98951.25;4884878;29;20032;-77
2024/04/06 15:14:58;;;;;;;0.00;0.00;;;;;;;14.71;78.54;98975.19;4892094;29;20140;-76
2024/04/06 15:17:33;;;;;;;0.00;0.00;;;;;;;14.76;78.24;98971.44;4885261;29;20083;-76
2024/04/06 15:20:22;;;;;;;;;;;;;;;;;;;;;
2024/04/06 15:23:15;;;;;;;;;;;;;;;;;;;;;
2024/04/06 15:26:07;;;;;;;0.00;0.00;;;;;;;14.91;78.30;98994.84;4890282;29;20048;-79
2024/04/06 15:32:04;;;;;;;0.00;0.00;;;;;;;14.64;76.83;98936.38;4882125;29;20044;-76
2024/04/06 15:34:36;;;;;;;0.00;0.00;;;;;;;14.99;77.24;98941.72;4870639;29;20040;-78
2024/04/06 15:37:10;;;;;;;0.00;0.00;;;;;;;15.21;76.93;98943.38;4887848;29;20044;-77
2024/04/06 15:39:42;;;;;;;0.00;0.00;;;;;;;15.19;76.26;98929.94;4889612;29;20548;-77
2024/04/06 15:42:48;;;;;;;0.00;0.00;;;;;;;15.06;75.00;98908.97;4894434;29;20039;-78
2024/04/06 15:45:34;;;;;;;0.00;0.00;;;;;;;14.94;75.47;98911.66;4904188;29;20037;-77
2024/04/06 15:48:34;;;;;;;;;;;;;;;;;;;;;
2024/04/06 15:51:03;;;;;;;0.00;0.00;;;;;;;14.97;78.00;98950.31;4846173;29;20390;-76
2024/04/06 15:53:28;;;;;;;0.00;0.00;;;;;;;15.04;78.75;98937.97;4888238;29;20088;-77
2024/04/06 15:55:59;;;;;;;0.00;0.00;;;;;;;15.04;78.11;98926.94;4878367;29;20040;-77
2024/04/06 15:58:29;;;;;;;0.00;0.00;;;;;;;15.14;78.02;98916.38;4889174;29;20052;-78
2024/04/06 16:00:54;;;;;;;0.00;0.00;;;;;;;15.29;77.23;98914.19;4874040;29;20040;-75
2024/04/06 16:03:27;;;;;;;0.00;0.00;;;;;;;15.21;76.64;98898.53;4889065;29;20033;-75
2024/04/06 16:05:53;;;;;;;0.00;0.00;;;;;;;15.25;76.68;98891.22;4891207;29;20043;-78
2024/04/06 16:08:24;;;;;;;0.00;0.00;;;;;;;15.17;75.96;98887.34;4879757;29;20037;-77
2024/04/06 16:10:52;;;;;;;0.00;0.00;;;;;;;15.39;75.95;98927.56;4874892;29;20402;-78
2024/04/06 16:13:20;;;;;;;0.00;0.00;;;;;;;15.34;75.72;98883.69;4889838;29;20033;-77
2024/04/06 16:16:04;;;;;;;0.00;0.00;;;;;;;15.35;74.23;98882.53;4888672;29;20120;-80
2024/04/06 16:18:35;;;;;;;0.00;0.00;;;;;;;15.23;74.96;98893.47;4873223;29;20129;-75
2024/04/06 16:21:04;;;;;;;0.00;0.00;;;;;;;15.14;75.40;98896.28;4892677;29;20032;-76
2024/04/06 16:23:38;;;;;;;0.00;0.00;;;;;;;14.91;76.29;98873.75;4873770;29;20523;-78
2024/04/06 16:26:11;;;;;;;0.00;0.00;;;;;;;14.94;76.72;98906.94;4904518;29;20120;-78
2024/04/06 16:28:51;;;;;;;0.00;0.00;;;;;;;14.81;77.21;98896.97;4910960;29;20036;-78
2024/04/06 16:31:35;;;;;;;0.00;0.00;;;;;;;14.73;77.72;98875.81;4878307;29;20056;-77
2024/04/06 16:34:00;;;;;;;0.00;0.00;;;;;;;14.70;77.23;98858.00;4879492;29;20509;-76
2024/04/06 16:43:07;;;;;;;;;;;;;;;;;;;;;
2024/04/06 16:45:35;;;;;;;0.00;0.00;;;;;;;15.67;75.24;98904.97;4893824;29;20045;-76
2024/04/06 16:49:08;;;;;;;;;;;;;;;;;;;;;
2024/04/06 16:52:00;;;;;;;0.00;0.00;;;;;;;15.70;73.84;98880.31;4886539;29;20044;-78
2024/04/06 16:54:38;;;;;;;0.00;0.00;;;;;;;15.66;74.48;98882.13;4887695;29;20043;-77
2024/04/06 17:06:28;;;;;;;0.00;0.00;;;;;;;15.22;77.73;98911.16;4819485;29;20079;-77
2024/04/06 17:12:34;;;;;;;0.00;0.00;;;;;;;14.77;79.99;98910.56;4801432;29;20042;-76
2024/04/06 17:15:35;;;;;;;;;;;;;;;;;;;;;